createdAt,value
2019-03-16T00:00:13.300Z,1.20
2019-03-16T00:05:23.489Z,2.33
2019-03-16T00:10:32.868Z,1.70
2019-03-16T00:15:40.040Z,1.47
2019-03-16T00:20:48.321Z,1.90
2019-03-16T00:25:55.873Z,2.50
2019-03-16T00:31:03.168Z,1.33
2019-03-16T00:36:12.272Z,1.70
2019-03-16T00:41:23.208Z,1.37
2019-03-16T00:46:31.169Z,2.07
2019-03-16T00:51:38.898Z,1.33
2019-03-16T00:56:46.779Z,1.87
2019-03-16T01:01:55.645Z,2.00
2019-03-16T01:07:02.872Z,1.87
2019-03-16T01:12:11.578Z,2.53
2019-03-16T01:17:19.247Z,1.77
2019-03-16T01:22:28.114Z,1.93
2019-03-16T01:27:36.366Z,2.10
2019-03-16T01:32:45.724Z,2.20
2019-03-16T01:37:53.373Z,2.17
2019-03-16T01:43:00.336Z,2.27
2019-03-16T01:48:07.488Z,2.33
2019-03-16T01:53:16.610Z,2.00
2019-03-16T01:58:23.671Z,1.97
2019-03-16T02:03:30.346Z,2.20
2019-03-16T02:08:36.682Z,2.63
2019-03-16T02:13:42.599Z,2.27
2019-03-16T02:18:51.250Z,1.50
2019-03-16T02:23:57.993Z,2.23
2019-03-16T02:29:07.321Z,2.77
2019-03-16T02:34:15.305Z,2.70
2019-03-16T02:39:23.178Z,2.50
2019-03-16T02:44:31.759Z,2.67
2019-03-16T02:49:40.915Z,3.10
2019-03-16T02:54:48.091Z,2.73
2019-03-16T02:59:56.906Z,1.87
2019-03-16T03:05:03.574Z,2.30
2019-03-16T03:10:11.829Z,1.50
2019-03-16T03:15:18.089Z,2.03
2019-03-16T03:20:26.269Z,2.67
2019-03-16T03:25:33.358Z,2.20
2019-03-16T03:30:41.265Z,2.90
2019-03-16T03:35:48.429Z,2.53
2019-03-16T03:40:55.163Z,2.00
2019-03-16T03:46:02.399Z,2.00
2019-03-16T03:51:09.780Z,2.60
2019-03-16T03:56:17.039Z,3.67
2019-03-16T04:01:23.500Z,2.17
2019-03-16T04:06:29.720Z,1.67
2019-03-16T04:11:38.540Z,2.80
2019-03-16T04:16:46.948Z,2.23
2019-03-16T04:21:56.328Z,1.73
2019-03-16T04:27:16.093Z,2.27
2019-03-16T04:32:16.841Z,2.20
2019-03-16T04:37:25.325Z,2.53
2019-03-16T04:42:33.768Z,2.47
2019-03-16T04:47:40.925Z,2.40
2019-03-16T04:52:51.020Z,2.00
2019-03-16T04:57:57.064Z,1.93
2019-03-16T05:03:08.170Z,2.53
2019-03-16T05:08:16.489Z,2.10
2019-03-16T05:13:24.734Z,2.00
2019-03-16T05:18:32.883Z,2.83
2019-03-16T05:23:42.182Z,2.50
2019-03-16T05:28:49.465Z,2.33
2019-03-16T05:33:56.113Z,2.07
2019-03-16T05:39:03.502Z,2.47
2019-03-16T05:44:09.423Z,2.70
2019-03-16T05:49:16.003Z,1.70
2019-03-16T05:54:21.555Z,2.27
2019-03-16T05:59:27.318Z,2.33
2019-03-16T06:04:33.768Z,1.90
2019-03-16T06:09:39.401Z,2.70
2019-03-16T06:14:44.943Z,2.73
2019-03-16T06:19:50.534Z,2.30
2019-03-16T06:24:56.510Z,3.30
2019-03-16T06:30:02.644Z,2.03
2019-03-16T06:35:23.408Z,2.20
2019-03-16T06:40:17.125Z,1.67
2019-03-16T06:45:23.920Z,2.77
2019-03-16T06:50:30.061Z,2.40
2019-03-16T06:55:37.263Z,3.30
2019-03-16T07:00:43.059Z,2.17
2019-03-16T07:05:48.853Z,2.17
2019-03-16T07:10:54.637Z,2.27
2019-03-16T07:16:00.281Z,2.90
2019-03-16T07:21:07.602Z,2.60
2019-03-16T07:26:15.151Z,2.43
2019-03-16T07:31:21.334Z,2.60
2019-03-16T07:36:26.963Z,3.20
2019-03-16T07:41:34.505Z,2.47
2019-03-16T07:46:40.157Z,2.60
2019-03-16T07:51:46.269Z,2.70
2019-03-16T07:56:53.449Z,2.00
2019-03-16T08:01:59.328Z,2.83
2019-03-16T08:07:06.746Z,2.10
2019-03-16T08:12:14.005Z,2.57
2019-03-16T08:17:20.217Z,2.97
2019-03-16T08:22:27.398Z,2.40
2019-03-16T08:27:33.317Z,2.67
2019-03-16T08:32:40.510Z,3.07
2019-03-16T08:37:47.059Z,2.47
2019-03-16T08:42:52.721Z,3.30
2019-03-16T08:48:02.662Z,2.70
2019-03-16T08:53:10.190Z,2.93
2019-03-16T08:58:16.264Z,2.90
2019-03-16T09:03:22.499Z,2.33
2019-03-16T09:08:29.091Z,2.40
2019-03-16T09:13:35.518Z,2.47
2019-03-16T09:18:41.340Z,2.10
2019-03-16T09:23:47.382Z,2.63
2019-03-16T09:29:00.081Z,2.80
2019-03-16T09:34:03.644Z,3.60
2019-03-16T09:39:10.393Z,2.00
2019-03-16T09:44:16.751Z,2.63
2019-03-16T09:49:22.781Z,2.40
2019-03-16T09:54:29.606Z,1.90
2019-03-16T09:59:36.116Z,2.60
2019-03-16T10:04:43.441Z,2.33
2019-03-16T10:09:52.795Z,2.40
2019-03-16T10:14:59.369Z,2.17
2019-03-16T10:20:14.487Z,2.17
2019-03-16T10:25:21.017Z,2.40
2019-03-16T10:30:27.104Z,2.23
2019-03-16T10:35:34.534Z,1.97
2019-03-16T10:40:40.522Z,2.23
2019-03-16T10:45:46.174Z,2.30
2019-03-16T10:50:52.451Z,1.43
2019-03-16T10:56:00.238Z,1.70
2019-03-16T11:01:05.887Z,2.13
2019-03-16T11:06:11.907Z,1.67
2019-03-16T11:11:17.673Z,2.70
2019-03-16T11:16:23.616Z,2.20
2019-03-16T11:21:30.758Z,1.63
2019-03-16T11:26:38.477Z,1.43
2019-03-16T11:31:44.527Z,1.33
2019-03-16T11:36:52.213Z,1.50
2019-03-16T11:41:58.250Z,1.07
2019-03-16T11:47:04.440Z,1.00
2019-03-16T11:52:10.896Z,0.87
2019-03-16T11:57:17.672Z,1.30
2019-03-16T12:02:23.891Z,1.27
2019-03-16T12:07:29.682Z,1.33
2019-03-16T12:12:36.381Z,1.10
2019-03-16T12:17:45.709Z,1.10
2019-03-16T12:22:54.573Z,1.63
2019-03-16T12:28:01.329Z,1.37
2019-03-16T12:33:07.173Z,1.50
2019-03-16T12:38:12.839Z,1.60
2019-03-16T12:43:18.789Z,1.37
2019-03-16T12:48:25.384Z,1.37
2019-03-16T12:53:30.935Z,2.80
2019-03-16T12:58:37.849Z,1.70
2019-03-16T13:03:43.410Z,1.17
2019-03-16T13:08:49.039Z,1.70
2019-03-16T13:13:54.808Z,1.73
2019-03-16T13:19:00.420Z,2.00
2019-03-16T13:24:06.055Z,1.80
2019-03-16T13:29:11.949Z,2.37
2019-03-16T13:34:17.519Z,1.33
2019-03-16T13:39:25.022Z,0.80
2019-03-16T13:44:32.199Z,0.80
2019-03-16T13:49:37.780Z,1.17
2019-03-16T13:54:43.524Z,0.90
2019-03-16T13:59:49.609Z,0.80
2019-03-16T14:04:56.288Z,0.60
2019-03-16T14:10:05.160Z,0.70
2019-03-16T14:15:11.240Z,0.53
2019-03-16T14:20:17.630Z,0.77
2019-03-16T14:25:23.812Z,0.90
2019-03-16T14:30:40.855Z,1.13
2019-03-16T14:35:39.976Z,0.80
2019-03-16T14:40:45.752Z,1.20
2019-03-16T14:45:52.154Z,0.90
2019-03-16T14:50:57.941Z,1.17
2019-03-16T14:56:03.829Z,1.20
2019-03-16T15:01:13.299Z,1.77
2019-03-16T15:06:23.207Z,1.50
2019-03-16T15:11:30.655Z,1.70
2019-03-16T15:16:38.169Z,1.93
2019-03-16T15:21:43.928Z,1.67
2019-03-16T15:26:49.645Z,3.40
2019-03-16T15:31:56.519Z,11.90
2019-03-16T15:37:02.990Z,1.37
2019-03-16T15:42:08.912Z,1.30
2019-03-16T15:47:16.115Z,1.40
2019-03-16T15:52:21.821Z,1.47
2019-03-16T15:57:27.981Z,1.60
2019-03-16T16:02:34.506Z,1.50
2019-03-16T16:07:41.354Z,1.90
2019-03-16T16:12:46.913Z,1.70
2019-03-16T16:17:52.745Z,2.07
2019-03-16T16:22:59.095Z,1.67
2019-03-16T16:28:04.736Z,1.97
2019-03-16T16:33:10.568Z,2.40
2019-03-16T16:38:16.688Z,2.50
2019-03-16T16:43:22.550Z,2.60
2019-03-16T16:48:28.526Z,2.83
2019-03-16T16:53:34.825Z,2.97
2019-03-16T16:58:41.114Z,4.00
2019-03-16T17:03:48.965Z,3.90
2019-03-16T17:08:54.959Z,4.03
2019-03-16T17:14:02.370Z,14.30
2019-03-16T17:19:10.317Z,11.30
2019-03-16T17:24:18.026Z,4.43
2019-03-16T17:29:23.785Z,5.57
2019-03-16T17:34:30.630Z,7.17
2019-03-16T17:39:37.381Z,7.00
2019-03-16T17:44:43.517Z,6.53
2019-03-16T17:49:49.104Z,8.30
2019-03-16T17:54:54.933Z,8.80
2019-03-16T18:00:00.936Z,8.83
2019-03-16T18:05:09.396Z,9.47
2019-03-16T18:10:16.626Z,9.57
2019-03-16T18:15:22.858Z,10.70
2019-03-16T18:20:29.801Z,10.47
2019-03-16T18:25:37.995Z,10.63
2019-03-16T18:30:44.660Z,11.43
2019-03-16T18:35:50.670Z,11.27
2019-03-16T18:40:56.440Z,11.07
2019-03-16T18:46:03.957Z,10.63
2019-03-16T18:51:09.965Z,11.10
2019-03-16T18:56:15.899Z,10.67
2019-03-16T19:01:21.624Z,11.40
2019-03-16T19:06:29.611Z,10.30
2019-03-16T19:11:37.486Z,10.70
2019-03-16T19:16:44.178Z,11.13
2019-03-16T19:21:51.340Z,10.77
2019-03-16T19:26:58.162Z,9.83
2019-03-16T19:32:05.274Z,10.60
2019-03-16T19:37:12.169Z,9.37
2019-03-16T19:42:21.866Z,7.57
2019-03-16T19:47:29.874Z,5.60
2019-03-16T19:52:38.562Z,5.93
2019-03-16T19:57:46.311Z,5.20
2019-03-16T20:02:54.097Z,5.60
2019-03-16T20:08:00.039Z,4.50
2019-03-16T20:13:07.845Z,4.90
2019-03-16T20:18:14.317Z,4.90
2019-03-16T20:23:21.541Z,5.33
2019-03-16T20:28:29.643Z,5.17
2019-03-16T20:33:37.688Z,6.17
2019-03-16T20:38:44.393Z,6.10
2019-03-16T20:43:51.901Z,6.60
2019-03-16T20:49:03.483Z,6.70
2019-03-16T20:54:10.347Z,6.30
2019-03-16T20:59:19.232Z,6.43
2019-03-16T21:04:25.705Z,21.30
2019-03-16T21:09:31.576Z,10.80
2019-03-16T21:14:38.097Z,4.53
2019-03-16T21:19:45.978Z,4.10
2019-03-16T21:24:53.478Z,3.10
2019-03-16T21:29:59.319Z,2.73
2019-03-16T21:35:07.511Z,2.37
2019-03-16T21:40:14.831Z,2.67
2019-03-16T21:45:20.781Z,2.00
2019-03-16T21:50:31.442Z,2.17
2019-03-16T21:55:38.604Z,1.90
2019-03-16T22:00:45.001Z,1.90
2019-03-16T22:05:52.214Z,1.80
2019-03-16T22:10:57.879Z,1.53
2019-03-16T22:16:04.364Z,1.40
2019-03-16T22:21:11.385Z,1.60
2019-03-16T22:26:17.028Z,1.47
2019-03-16T22:31:22.583Z,5.10
2019-03-16T22:36:28.831Z,1.97
2019-03-16T22:41:34.496Z,1.40
2019-03-16T22:46:40.765Z,1.50
2019-03-16T22:51:46.498Z,1.40
2019-03-16T22:56:52.904Z,1.30
2019-03-16T23:01:59.104Z,1.40
2019-03-16T23:07:05.579Z,1.20
2019-03-16T23:12:12.567Z,1.53
2019-03-16T23:17:19.739Z,1.30
2019-03-16T23:22:27.615Z,1.50
2019-03-16T23:27:34.280Z,1.30
2019-03-16T23:32:40.594Z,1.47
2019-03-16T23:37:46.626Z,1.83
2019-03-16T23:42:53.113Z,1.60
2019-03-16T23:48:00.828Z,1.80
2019-03-16T23:53:08.047Z,2.33
2019-03-16T23:58:15.343Z,1.80
